createdAt,value
2018-04-07T00:00:55.726Z,6.5
2018-04-07T00:02:02.396Z,6.5
2018-04-07T00:03:09.058Z,6.4
2018-04-07T00:04:16.285Z,6.4
2018-04-07T00:05:23.235Z,6.4
2018-04-07T00:06:30.146Z,6.4
2018-04-07T00:07:37.347Z,6.4
2018-04-07T00:08:44.547Z,6.4
2018-04-07T00:09:51.844Z,6.4
2018-04-07T00:10:59.124Z,6.3
2018-04-07T00:12:06.333Z,6.4
2018-04-07T00:13:13.265Z,6.4
2018-04-07T00:14:20.193Z,6.3
2018-04-07T00:15:26.581Z,6.3
2018-04-07T00:16:33.782Z,6.2
2018-04-07T00:17:40.996Z,6.1
2018-04-07T00:18:47.927Z,6.1
2018-04-07T00:19:55.135Z,5.9
2018-04-07T00:21:02.065Z,6
2018-04-07T00:22:08.440Z,6.1
2018-04-07T00:23:15.370Z,6
2018-04-07T00:24:22.581Z,6
2018-04-07T00:25:29.796Z,6
2018-04-07T00:26:37.005Z,5.9
2018-04-07T00:27:44.213Z,5.9
2018-04-07T00:28:51.144Z,5.9
2018-04-07T00:29:58.351Z,5.9
2018-04-07T00:31:05.555Z,5.7
2018-04-07T00:32:12.222Z,5.6
2018-04-07T00:33:19.150Z,5.5
2018-04-07T00:34:26.354Z,5.4
2018-04-07T00:35:33.556Z,5.4
2018-04-07T00:36:40.755Z,5.3
2018-04-07T00:37:47.968Z,5.3
2018-04-07T00:38:55.182Z,5.2
2018-04-07T00:40:02.397Z,5.2
2018-04-07T00:41:09.053Z,5.2
2018-04-07T00:42:16.270Z,5.1
2018-04-07T00:43:23.469Z,5.1
2018-04-07T00:44:30.678Z,5
2018-04-07T00:45:37.888Z,4.9
2018-04-07T00:46:44.825Z,4.9
2018-04-07T00:47:51.480Z,4.9
2018-04-07T00:48:58.404Z,4.8
2018-04-07T00:50:05.064Z,4.8
2018-04-07T00:51:12.013Z,4.7
2018-04-07T00:52:19.227Z,4.7
2018-04-07T00:53:26.171Z,4.6
2018-04-07T00:54:33.374Z,4.5
2018-04-07T00:55:40.300Z,4.5
2018-04-07T00:56:46.959Z,4.4
2018-04-07T00:57:53.893Z,4.4
2018-04-07T00:59:01.098Z,4.4
2018-04-07T01:00:08.036Z,4.5
2018-04-07T01:01:14.960Z,4.5
2018-04-07T01:02:21.887Z,4.4
2018-04-07T01:03:28.816Z,4.4
2018-04-07T01:04:35.484Z,4.3
2018-04-07T01:05:42.693Z,4.3
2018-04-07T01:06:49.888Z,4.2
2018-04-07T01:07:56.809Z,4.1
2018-04-07T01:09:04.005Z,4.1
2018-04-07T01:10:11.208Z,4
2018-04-07T01:11:18.410Z,4
2018-04-07T01:12:25.619Z,4
2018-04-07T01:13:32.564Z,3.9
2018-04-07T01:14:39.770Z,3.9
2018-04-07T01:15:46.985Z,3.8
2018-04-07T01:16:54.193Z,3.8
2018-04-07T01:18:01.125Z,3.8
2018-04-07T01:19:08.301Z,3.7
2018-04-07T01:20:15.223Z,3.7
2018-04-07T01:21:22.428Z,3.6
2018-04-07T01:22:29.650Z,3.6
2018-04-07T01:23:36.588Z,3.5
2018-04-07T01:24:43.541Z,3.5
2018-04-07T01:25:50.744Z,3.4
2018-04-07T01:26:57.959Z,3.4
2018-04-07T01:28:04.912Z,3.4
2018-04-07T01:29:12.129Z,3.3
2018-04-07T01:30:19.054Z,3.3
2018-04-07T01:31:25.705Z,3.3
2018-04-07T01:32:32.900Z,3.3
2018-04-07T01:33:40.100Z,3.3
2018-04-07T01:34:47.304Z,3.3
2018-04-07T01:35:54.241Z,3.3
2018-04-07T01:37:01.454Z,3.3
2018-04-07T01:38:08.659Z,3.3
2018-04-07T01:39:15.315Z,3.3
2018-04-07T01:40:22.521Z,3.2
2018-04-07T01:41:29.717Z,3.2
2018-04-07T01:42:36.657Z,3.3
2018-04-07T01:43:43.859Z,3.3
2018-04-07T01:44:51.062Z,3.2
2018-04-07T01:45:57.986Z,3.2
2018-04-07T01:47:04.910Z,3.1
2018-04-07T01:48:11.290Z,3.1
2018-04-07T01:49:17.947Z,3
2018-04-07T01:50:25.147Z,2.9
2018-04-07T01:51:31.797Z,2.9
2018-04-07T01:52:38.726Z,2.8
2018-04-07T01:53:45.670Z,2.8
2018-04-07T01:54:52.600Z,2.7
2018-04-07T01:55:59.809Z,2.8
2018-04-07T01:57:06.463Z,2.7
2018-04-07T01:58:13.396Z,2.7
2018-04-07T01:59:20.593Z,2.7
2018-04-07T02:00:27.250Z,2.6
2018-04-07T02:01:34.451Z,2.6
2018-04-07T02:02:41.366Z,2.5
2018-04-07T02:03:48.300Z,2.5
2018-04-07T02:04:54.975Z,2.5
2018-04-07T02:06:01.897Z,2.5
2018-04-07T02:07:09.113Z,2.5
2018-04-07T02:08:16.315Z,2.5
2018-04-07T02:09:23.239Z,2.5
2018-04-07T02:10:30.169Z,2.5
2018-04-07T02:11:37.090Z,2.5
2018-04-07T02:12:44.304Z,2.5
2018-04-07T02:13:51.500Z,2.4
2018-04-07T02:14:58.703Z,2.4
2018-04-07T02:16:05.624Z,2.4
2018-04-07T02:17:12.831Z,2.3
2018-04-07T02:18:20.031Z,2.4
2018-04-07T02:19:27.242Z,2.4
2018-04-07T02:20:34.444Z,2.4
2018-04-07T02:21:40.814Z,2.3
2018-04-07T02:22:47.733Z,2.3
2018-04-07T02:23:54.933Z,2.3
2018-04-07T02:25:01.855Z,2.3
2018-04-07T02:26:08.498Z,2.3
2018-04-07T02:27:15.708Z,2.3
2018-04-07T02:28:22.912Z,2.2
2018-04-07T02:29:30.131Z,2.2
2018-04-07T02:30:37.068Z,2.2
2018-04-07T02:31:44.306Z,2.2
2018-04-07T02:32:51.537Z,2.2
2018-04-07T02:33:58.776Z,2.1
2018-04-07T02:35:05.697Z,2.1
2018-04-07T02:36:12.899Z,2.1
2018-04-07T02:37:20.100Z,2.1
2018-04-07T02:38:27.300Z,2.1
2018-04-07T02:39:34.504Z,2
2018-04-07T02:40:41.430Z,2
2018-04-07T02:41:48.361Z,2
2018-04-07T02:42:55.574Z,2
2018-04-07T02:44:02.502Z,1.9
2018-04-07T02:45:09.441Z,1.9
2018-04-07T02:46:16.365Z,1.9
2018-04-07T02:47:23.303Z,1.9
2018-04-07T02:48:30.502Z,1.9
2018-04-07T02:49:37.158Z,1.8
2018-04-07T02:50:44.365Z,1.8
2018-04-07T02:51:51.561Z,1.8
2018-04-07T02:52:58.773Z,1.8
2018-04-07T02:54:05.991Z,1.7
2018-04-07T02:55:13.195Z,1.7
2018-04-07T02:56:20.418Z,1.6
2018-04-07T02:57:27.618Z,1.6
2018-04-07T02:58:34.593Z,1.6
2018-04-07T02:59:56.452Z,1.5
2018-04-07T03:01:03.669Z,1.5
2018-04-07T03:02:10.592Z,1.5
2018-04-07T03:03:17.534Z,1.5
2018-04-07T03:04:24.736Z,1.5
2018-04-07T03:05:31.387Z,1.6
2018-04-07T03:06:38.597Z,1.6
2018-04-07T03:07:45.532Z,1.6
2018-04-07T03:08:52.755Z,1.6
2018-04-07T03:09:59.399Z,1.6
2018-04-07T03:11:06.611Z,1.6
2018-04-07T03:12:13.811Z,1.6
2018-04-07T03:13:21.015Z,1.6
2018-04-07T03:14:28.215Z,1.5
2018-04-07T03:15:35.416Z,1.6
2018-04-07T03:16:42.640Z,1.5
2018-04-07T03:17:49.567Z,1.5
2018-04-07T03:18:56.788Z,1.5
2018-04-07T03:20:03.714Z,1.5
2018-04-07T03:21:10.913Z,1.4
2018-04-07T03:22:17.845Z,1.4
2018-04-07T03:23:24.778Z,1.4
2018-04-07T03:24:31.706Z,1.4
2018-04-07T03:25:38.899Z,1.4
2018-04-07T03:26:44.990Z,1.4
2018-04-07T03:27:51.648Z,1.3
2018-04-07T03:28:58.849Z,1.3
2018-04-07T03:30:05.791Z,1.3
2018-04-07T03:31:12.999Z,1.3
2018-04-07T03:32:20.204Z,1.3
2018-04-07T03:33:27.403Z,1.2
2018-04-07T03:34:34.605Z,1.2
2018-04-07T03:35:41.812Z,1.2
2018-04-07T03:36:49.013Z,1.3
2018-04-07T03:37:56.218Z,1.3
2018-04-07T03:39:02.880Z,1.3
2018-04-07T03:40:09.529Z,1.3
2018-04-07T03:41:16.742Z,1.4
2018-04-07T03:42:23.946Z,1.3
2018-04-07T03:43:31.150Z,1.4
2018-04-07T03:44:38.080Z,1.4
2018-04-07T03:45:44.452Z,1.4
2018-04-07T03:46:51.656Z,1.4
2018-04-07T03:47:58.580Z,1.3
2018-04-07T03:49:05.509Z,1.3
2018-04-07T03:50:12.435Z,1.2
2018-04-07T03:51:19.362Z,1.2
2018-04-07T03:52:26.563Z,1.2
2018-04-07T03:53:33.760Z,1.2
2018-04-07T03:54:40.682Z,1.1
2018-04-07T03:55:47.607Z,1.1
2018-04-07T03:56:54.542Z,1.1
2018-04-07T03:58:01.742Z,1
2018-04-07T03:59:08.669Z,1.1
2018-04-07T04:00:15.602Z,1.1
2018-04-07T04:01:22.258Z,1.1
2018-04-07T04:02:29.472Z,1.2
2018-04-07T04:03:36.328Z,1.1
2018-04-07T04:04:43.528Z,1.2
2018-04-07T04:05:50.466Z,1.2
2018-04-07T04:06:57.420Z,1.1
2018-04-07T04:08:04.350Z,1
2018-04-07T04:09:11.556Z,1
2018-04-07T04:10:18.498Z,1
2018-04-07T04:11:25.144Z,1
2018-04-07T04:12:32.342Z,1
2018-04-07T04:13:39.541Z,1
2018-04-07T04:14:46.461Z,1
2018-04-07T04:15:53.656Z,0.9
2018-04-07T04:17:00.877Z,0.9
2018-04-07T04:18:08.074Z,0.9
2018-04-07T04:19:15.009Z,0.9
2018-04-07T04:20:22.220Z,0.8
2018-04-07T04:21:29.432Z,0.8
2018-04-07T04:22:36.635Z,0.8
2018-04-07T04:23:43.844Z,0.8
2018-04-07T04:24:51.046Z,0.8
2018-04-07T04:25:58.248Z,0.8
2018-04-07T04:27:05.166Z,0.8
2018-04-07T04:28:12.381Z,0.8
2018-04-07T04:29:19.591Z,0.9
2018-04-07T04:30:26.810Z,0.8
2018-04-07T04:31:33.745Z,0.8
2018-04-07T04:32:40.967Z,0.8
2018-04-07T04:33:47.582Z,0.8
2018-04-07T04:34:54.267Z,0.8
2018-04-07T04:36:01.463Z,0.8
2018-04-07T04:37:08.664Z,0.8
2018-04-07T04:38:15.583Z,0.8
2018-04-07T04:39:22.783Z,0.8
2018-04-07T04:40:29.992Z,0.7
2018-04-07T04:41:37.210Z,0.7
2018-04-07T04:42:44.418Z,0.7
2018-04-07T04:43:51.623Z,0.7
2018-04-07T04:44:58.831Z,0.7
2018-04-07T04:46:05.745Z,0.7
2018-04-07T04:47:12.675Z,0.6
2018-04-07T04:48:19.890Z,0.6
2018-04-07T04:49:26.810Z,0.6
2018-04-07T04:50:34.019Z,0.6
2018-04-07T04:51:41.234Z,0.7
2018-04-07T04:52:48.436Z,0.7
2018-04-07T04:53:55.646Z,0.6
2018-04-07T04:55:02.919Z,0.6
2018-04-07T04:56:10.210Z,0.6
2018-04-07T04:57:17.433Z,0.7
2018-04-07T04:58:24.633Z,0.7
2018-04-07T04:59:31.572Z,0.7
2018-04-07T05:00:38.505Z,0.7
2018-04-07T05:01:45.710Z,0.7
2018-04-07T05:02:52.908Z,0.7
2018-04-07T05:04:14.751Z,0.8
2018-04-07T05:05:21.682Z,0.8
2018-04-07T05:06:28.608Z,0.8
2018-04-07T05:07:35.265Z,0.9
2018-04-07T05:08:42.187Z,1
2018-04-07T05:09:49.397Z,1
2018-04-07T05:10:56.045Z,1.1
2018-04-07T05:12:03.253Z,1.1
2018-04-07T05:13:10.449Z,1
2018-04-07T05:14:17.651Z,1
2018-04-07T05:15:24.857Z,1
2018-04-07T05:16:32.071Z,1
2018-04-07T05:17:39.020Z,1
2018-04-07T05:18:46.220Z,1
2018-04-07T05:19:53.415Z,1
2018-04-07T05:21:00.613Z,1.1
2018-04-07T05:22:07.829Z,1.1
2018-04-07T05:23:15.032Z,1.1
2018-04-07T05:24:22.220Z,1.1
2018-04-07T05:25:29.637Z,1.1
2018-04-07T05:26:36.576Z,1.2
2018-04-07T05:27:43.796Z,1.2
2018-04-07T05:28:50.721Z,1.2
2018-04-07T05:29:58.189Z,1.3
2018-04-07T05:31:05.394Z,1.4
2018-04-07T05:32:12.614Z,1.5
2018-04-07T05:33:19.835Z,1.6
2018-04-07T05:34:27.057Z,1.6
2018-04-07T05:35:34.280Z,1.6
2018-04-07T05:36:41.702Z,1.7
2018-04-07T05:37:48.935Z,1.7
2018-04-07T05:38:56.372Z,1.7
2018-04-07T05:40:03.586Z,1.7
2018-04-07T05:41:10.794Z,1.7
2018-04-07T05:42:17.734Z,1.8
2018-04-07T05:43:24.893Z,1.7
2018-04-07T05:44:32.115Z,1.8
2018-04-07T05:45:39.321Z,1.8
2018-04-07T05:46:46.506Z,1.9
2018-04-07T05:47:53.722Z,1.9
2018-04-07T05:49:00.938Z,1.8
2018-04-07T05:50:08.165Z,1.9
2018-04-07T05:51:15.397Z,1.9
2018-04-07T05:52:22.611Z,1.9
2018-04-07T05:53:29.816Z,1.9
2018-04-07T05:54:37.257Z,2
2018-04-07T05:55:44.456Z,2
2018-04-07T05:56:51.877Z,2
2018-04-07T05:57:59.081Z,2.1
2018-04-07T05:59:06.301Z,2.2
2018-04-07T06:00:13.519Z,2.3
2018-04-07T06:01:20.731Z,2.3
2018-04-07T06:02:27.949Z,2.3
2018-04-07T06:03:35.179Z,2.4
2018-04-07T06:04:42.383Z,2.5
2018-04-07T06:05:49.601Z,2.5
2018-04-07T06:06:56.808Z,2.6
2018-04-07T06:08:04.250Z,2.6
2018-04-07T06:09:11.455Z,2.7
2018-04-07T06:10:18.691Z,2.8
2018-04-07T06:11:25.909Z,2.9
2018-04-07T06:12:33.128Z,3
2018-04-07T06:13:40.348Z,3.1
2018-04-07T06:14:47.568Z,3.2
2018-04-07T06:15:54.775Z,3.3
2018-04-07T06:17:02.208Z,3.4
2018-04-07T06:18:09.434Z,3.5
2018-04-07T06:19:31.508Z,3.6
2018-04-07T06:20:38.711Z,3.7
2018-04-07T06:21:45.915Z,3.9
2018-04-07T06:22:53.218Z,4
2018-04-07T06:24:00.548Z,4.1
2018-04-07T06:25:07.751Z,4.2
2018-04-07T06:26:14.958Z,4.4
2018-04-07T06:27:22.177Z,4.5
2018-04-07T06:28:29.380Z,4.7
2018-04-07T06:29:36.323Z,5
2018-04-07T06:30:43.261Z,5.2
2018-04-07T06:31:50.208Z,5.4
2018-04-07T06:32:57.173Z,5.6
2018-04-07T06:34:03.828Z,5.8
2018-04-07T06:35:11.051Z,6
2018-04-07T06:36:18.269Z,6.1
2018-04-07T06:37:25.710Z,6.2
2018-04-07T06:38:32.920Z,6.4
2018-04-07T06:39:40.085Z,6.5
2018-04-07T06:40:47.014Z,6.7
2018-04-07T06:41:54.202Z,6.9
2018-04-07T06:43:01.453Z,7.1
2018-04-07T06:44:08.679Z,7.4
2018-04-07T06:45:15.341Z,7.5
2018-04-07T06:46:22.571Z,7.7
2018-04-07T06:47:29.805Z,7.9
2018-04-07T06:48:37.279Z,7.9
2018-04-07T06:49:44.486Z,8
2018-04-07T06:50:51.933Z,8.1
2018-04-07T06:51:59.152Z,8.3
2018-04-07T06:53:06.316Z,8.3
2018-04-07T06:54:13.271Z,8.3
2018-04-07T06:55:20.482Z,8.4
2018-04-07T06:56:27.711Z,8.4
2018-04-07T06:57:34.929Z,8.5
2018-04-07T06:58:42.150Z,8.8
2018-04-07T06:59:49.570Z,8.9
2018-04-07T07:00:56.835Z,8.9
2018-04-07T07:02:04.285Z,9
2018-04-07T07:03:11.501Z,9
2018-04-07T07:04:18.729Z,9.2
2018-04-07T07:05:25.680Z,9.5
2018-04-07T07:06:32.902Z,9.5
2018-04-07T07:07:40.122Z,9.5
2018-04-07T07:08:47.351Z,9.6
2018-04-07T07:09:54.556Z,9.7
2018-04-07T07:11:01.796Z,9.8
2018-04-07T07:12:09.014Z,9.7
2018-04-07T07:13:16.234Z,9.8
2018-04-07T07:14:23.682Z,10
2018-04-07T07:15:30.904Z,10.2
2018-04-07T07:16:38.112Z,10.3
2018-04-07T07:17:45.275Z,10.4
2018-04-07T07:18:52.478Z,10.5
2018-04-07T07:19:59.951Z,10.5
2018-04-07T07:21:07.160Z,10.6
2018-04-07T07:22:14.371Z,10.7
2018-04-07T07:23:21.594Z,10.8
2018-04-07T07:24:28.818Z,11
2018-04-07T07:25:35.760Z,10.9
2018-04-07T07:26:42.984Z,11
2018-04-07T07:27:49.930Z,11.1
2018-04-07T07:28:57.147Z,11.1
2018-04-07T07:30:04.353Z,11
2018-04-07T07:31:11.565Z,11.1
2018-04-07T07:32:18.522Z,11.2
2018-04-07T07:33:25.752Z,11.3
2018-04-07T07:34:32.982Z,11.3
2018-04-07T07:35:40.135Z,11.5
2018-04-07T07:36:47.457Z,11.4
2018-04-07T07:37:54.678Z,11.5
2018-04-07T07:39:01.905Z,11.6
2018-04-07T07:40:09.157Z,11.7
2018-04-07T07:41:16.392Z,11.6
2018-04-07T07:42:23.841Z,11.4
2018-04-07T07:43:30.827Z,11.6
2018-04-07T07:44:38.007Z,11.5
2018-04-07T07:45:45.235Z,11.5
2018-04-07T07:46:52.434Z,11.6
2018-04-07T07:47:59.679Z,11.6
2018-04-07T07:49:06.898Z,11.8
2018-04-07T07:50:13.844Z,11.9
2018-04-07T07:51:21.290Z,11.8
2018-04-07T07:52:28.493Z,11.9
2018-04-07T07:53:35.697Z,11.9
2018-04-07T07:54:42.629Z,12
2018-04-07T07:55:50.069Z,11.9
2018-04-07T07:56:57.294Z,11.9
2018-04-07T07:58:04.519Z,12
2018-04-07T07:59:11.753Z,11.9
2018-04-07T08:00:18.960Z,11.8
2018-04-07T08:01:26.164Z,11.8
2018-04-07T08:02:33.609Z,11.9
2018-04-07T08:03:40.824Z,12.1
2018-04-07T08:04:48.270Z,12.3
2018-04-07T08:05:55.500Z,12.4
2018-04-07T08:07:02.921Z,12.6
2018-04-07T08:08:10.130Z,12.8
2018-04-07T08:09:17.354Z,13
2018-04-07T08:10:24.777Z,13
2018-04-07T08:11:32.030Z,12.9
2018-04-07T08:12:39.242Z,12.9
2018-04-07T08:13:46.458Z,13
2018-04-07T08:14:53.670Z,13.1
2018-04-07T08:16:00.919Z,13.1
2018-04-07T08:17:08.119Z,13
2018-04-07T08:18:15.349Z,13.2
2018-04-07T08:19:22.558Z,13.3
2018-04-07T08:20:29.736Z,13.1
2018-04-07T08:21:36.664Z,13.1
2018-04-07T08:22:44.143Z,13.3
2018-04-07T08:23:51.348Z,13.5
2018-04-07T08:24:58.300Z,13.7
2018-04-07T08:26:05.524Z,13.9
2018-04-07T08:27:12.732Z,14
2018-04-07T08:28:19.944Z,14
2018-04-07T08:29:27.155Z,13.8
2018-04-07T08:30:34.361Z,13.9
2018-04-07T08:31:41.589Z,13.9
2018-04-07T08:32:48.520Z,13.8
2018-04-07T08:33:55.462Z,13.8
2018-04-07T08:35:02.673Z,13.7
2018-04-07T08:36:09.883Z,13.8
2018-04-07T08:37:16.554Z,13.9
2018-04-07T08:38:23.778Z,13.8
2018-04-07T08:39:31.247Z,13.9
2018-04-07T08:40:38.432Z,14.1
2018-04-07T08:41:45.363Z,14.4
2018-04-07T08:42:52.598Z,14.6
2018-04-07T08:43:59.811Z,14.3
2018-04-07T08:45:06.740Z,14.4
2018-04-07T08:46:13.957Z,14.4
2018-04-07T08:47:20.902Z,14.2
2018-04-07T08:48:28.112Z,13.9
2018-04-07T08:49:34.778Z,13.9
2018-04-07T08:50:41.707Z,14.1
2018-04-07T08:51:48.638Z,14.4
2018-04-07T08:52:55.854Z,14.6
2018-04-07T08:54:03.070Z,14.4
2018-04-07T08:55:10.288Z,14.5
2018-04-07T08:56:16.940Z,14.7
2018-04-07T08:57:23.889Z,15
2018-04-07T08:58:31.259Z,15.2
2018-04-07T08:59:53.118Z,15
2018-04-07T09:00:59.774Z,14.8
2018-04-07T09:02:06.993Z,14.7
2018-04-07T09:03:13.936Z,14.7
2018-04-07T09:04:21.161Z,14.8
2018-04-07T09:05:27.820Z,15.1
2018-04-07T09:06:34.748Z,15.2
2018-04-07T09:07:41.961Z,15.3
2018-04-07T09:08:48.907Z,15.2
2018-04-07T09:09:55.868Z,15.1
2018-04-07T09:11:03.077Z,15.2
2018-04-07T09:12:10.040Z,15.3
2018-04-07T09:13:17.253Z,15.7
2018-04-07T09:14:23.929Z,15.7
2018-04-07T09:15:31.144Z,15.7
2018-04-07T09:16:38.366Z,15.8
2018-04-07T09:17:45.586Z,16.1
2018-04-07T09:18:52.525Z,16.2
2018-04-07T09:19:59.734Z,16.3
2018-04-07T09:21:06.663Z,16.3
2018-04-07T09:22:13.872Z,16.4
2018-04-07T09:23:21.206Z,16.5
2018-04-07T09:24:28.420Z,16.5
2018-04-07T09:25:35.092Z,16.7
2018-04-07T09:26:41.764Z,16.8
2018-04-07T09:27:48.975Z,16.9
2018-04-07T09:28:56.202Z,16.3
2018-04-07T09:30:03.132Z,16.4
2018-04-07T09:31:10.339Z,16.4
2018-04-07T09:32:17.554Z,16.3
2018-04-07T09:33:24.782Z,16.5
2018-04-07T09:34:31.992Z,17.1
2018-04-07T09:35:39.207Z,17.5
2018-04-07T09:36:46.438Z,17.5
2018-04-07T09:37:53.651Z,17.5
2018-04-07T09:39:00.614Z,17.4
2018-04-07T09:40:07.825Z,17.4
2018-04-07T09:41:14.777Z,17.4
2018-04-07T09:42:21.994Z,17.5
2018-04-07T09:43:29.215Z,17.7
2018-04-07T09:44:36.433Z,17.8
2018-04-07T09:45:43.645Z,17.8
2018-04-07T09:46:50.856Z,17.8
2018-04-07T09:47:58.076Z,17.8
2018-04-07T09:49:05.294Z,17.7
2018-04-07T09:50:12.507Z,17.8
2018-04-07T09:51:19.737Z,17.7
2018-04-07T09:52:26.953Z,17.9
2018-04-07T09:53:34.170Z,17.9
2018-04-07T09:54:41.374Z,18.1
2018-04-07T09:55:48.316Z,18.5
2018-04-07T09:56:55.526Z,18.8
2018-04-07T09:58:02.464Z,19
2018-04-07T09:59:09.690Z,19.1
2018-04-07T10:00:16.904Z,19.2
2018-04-07T10:01:24.123Z,18.9
2018-04-07T10:02:31.338Z,18.7
2018-04-07T10:03:38.546Z,18.4
2018-04-07T10:04:45.481Z,17.4
2018-04-07T10:05:52.716Z,17.5
2018-04-07T10:06:59.932Z,17.8
2018-04-07T10:08:07.158Z,18.3
2018-04-07T10:09:14.096Z,18.2
2018-04-07T10:10:21.315Z,18.5
2018-04-07T10:11:28.530Z,18.7
2018-04-07T10:12:35.741Z,19.1
2018-04-07T10:13:43.018Z,19.3
2018-04-07T10:14:49.637Z,19.3
2018-04-07T10:15:56.850Z,18.8
2018-04-07T10:17:04.078Z,17.8
2018-04-07T10:18:11.293Z,18.1
2018-04-07T10:19:18.502Z,18.7
2018-04-07T10:20:25.444Z,19.2
2018-04-07T10:21:32.659Z,19.4
2018-04-07T10:22:39.880Z,19.9
2018-04-07T10:23:47.100Z,20
2018-04-07T10:24:54.323Z,20.1
2018-04-07T10:26:01.560Z,20.1
2018-04-07T10:27:08.808Z,19.5
2018-04-07T10:28:16.066Z,18.9
2018-04-07T10:29:23.372Z,19
2018-04-07T10:30:30.605Z,19.7
2018-04-07T10:31:37.819Z,20.1
2018-04-07T10:32:45.046Z,20.5
2018-04-07T10:33:52.262Z,20.7
2018-04-07T10:34:59.476Z,20.5
2018-04-07T10:36:06.694Z,20.5
2018-04-07T10:37:13.945Z,20.6
2018-04-07T10:38:20.889Z,20.5
2018-04-07T10:39:27.846Z,20.3
2018-04-07T10:40:34.790Z,20.4
2018-04-07T10:41:42.002Z,20.6
2018-04-07T10:42:49.219Z,20.8
2018-04-07T10:43:56.110Z,20.9
2018-04-07T10:45:03.508Z,21.1
2018-04-07T10:46:10.728Z,21.3
2018-04-07T10:47:17.833Z,21.1
2018-04-07T10:48:25.076Z,21.2
2018-04-07T10:49:32.022Z,21.2
2018-04-07T10:50:39.469Z,21.2
2018-04-07T10:51:46.412Z,20.9
2018-04-07T10:52:53.866Z,20.8
2018-04-07T10:54:01.095Z,20.9
2018-04-07T10:55:08.040Z,21
2018-04-07T10:56:14.974Z,21.3
2018-04-07T10:57:21.659Z,21.4
2018-04-07T10:58:28.874Z,21.5
2018-04-07T10:59:36.114Z,21.4
2018-04-07T11:00:43.065Z,21
2018-04-07T11:01:50.511Z,21
2018-04-07T11:02:57.749Z,21.3
2018-04-07T11:04:05.200Z,21.6
2018-04-07T11:05:11.875Z,21.9
2018-04-07T11:06:19.123Z,21.9
2018-04-07T11:07:25.518Z,22.1
2018-04-07T11:08:32.759Z,22.6
2018-04-07T11:09:39.994Z,22.4
2018-04-07T11:10:47.227Z,22.4
2018-04-07T11:11:54.176Z,22.4
2018-04-07T11:13:01.624Z,22.3
2018-04-07T11:14:08.852Z,22.4
2018-04-07T11:15:16.308Z,22.2
2018-04-07T11:16:23.520Z,22.1
2018-04-07T11:17:30.188Z,21.9
2018-04-07T11:18:37.431Z,22
2018-04-07T11:19:44.092Z,22.3
2018-04-07T11:20:50.770Z,22.7
2018-04-07T11:21:58.001Z,22.4
2018-04-07T11:23:05.217Z,22.1
2018-04-07T11:24:12.653Z,22
2018-04-07T11:25:19.868Z,21.6
2018-04-07T11:26:27.046Z,21.7
2018-04-07T11:27:33.985Z,21.9
2018-04-07T11:28:41.223Z,22.1
2018-04-07T11:29:48.439Z,22.2
2018-04-07T11:30:55.656Z,22.4
2018-04-07T11:32:02.889Z,22.5
2018-04-07T11:33:10.125Z,22.8
2018-04-07T11:34:17.357Z,23.2
2018-04-07T11:35:24.343Z,23.3
2018-04-07T11:36:31.353Z,23.4
2018-04-07T11:37:38.314Z,23.4
2018-04-07T11:38:44.990Z,23.3
2018-04-07T11:39:52.443Z,23.4
2018-04-07T11:40:59.668Z,23.2
2018-04-07T11:42:06.843Z,23.3
2018-04-07T11:43:13.789Z,22.9
2018-04-07T11:44:20.992Z,22.9
2018-04-07T11:45:27.658Z,23.1
2018-04-07T11:46:34.872Z,22.8
2018-04-07T11:47:42.095Z,22.9
2018-04-07T11:48:49.060Z,22.9
2018-04-07T11:49:56.000Z,23.2
2018-04-07T11:51:03.173Z,23.2
2018-04-07T11:52:10.390Z,22.9
2018-04-07T11:53:17.568Z,22.8
2018-04-07T11:54:24.791Z,23.1
2018-04-07T11:55:32.027Z,23.1
2018-04-07T11:56:38.988Z,23.4
2018-04-07T11:57:45.943Z,23.3
2018-04-07T11:58:53.160Z,23.1
2018-04-07T12:00:00.394Z,23.3
2018-04-07T12:01:07.351Z,23.4
2018-04-07T12:02:14.250Z,23.4
2018-04-07T12:03:21.480Z,23.5
2018-04-07T12:04:28.720Z,23.6
2018-04-07T12:05:35.939Z,23.8
2018-04-07T12:06:43.122Z,23.7
2018-04-07T12:07:50.062Z,23.9
2018-04-07T12:08:57.290Z,24
2018-04-07T12:10:04.521Z,24.3
2018-04-07T12:11:11.758Z,24.6
2018-04-07T12:12:18.715Z,24.9
2018-04-07T12:13:26.172Z,25.1
2018-04-07T12:14:33.404Z,25.1
2018-04-07T12:15:40.845Z,24.2
2018-04-07T12:16:48.104Z,24.2
2018-04-07T12:17:55.070Z,24
2018-04-07T12:19:02.017Z,23.9
2018-04-07T12:20:09.171Z,23.7
2018-04-07T12:21:16.389Z,23.6
2018-04-07T12:22:23.566Z,23.4
2018-04-07T12:23:30.518Z,23.4
2018-04-07T12:24:36.937Z,23.6
2018-04-07T12:25:43.887Z,23.9
2018-04-07T12:26:50.825Z,24.2
2018-04-07T12:27:57.534Z,24.5
2018-04-07T12:29:04.496Z,24.5
2018-04-07T12:30:11.726Z,24.9
2018-04-07T12:31:18.898Z,25.2
2018-04-07T12:32:26.150Z,25.3
2018-04-07T12:33:33.604Z,25.7
2018-04-07T12:34:40.817Z,26
2018-04-07T12:35:47.782Z,26.1
2018-04-07T12:36:54.741Z,26.1
2018-04-07T12:38:01.712Z,25.8
2018-04-07T12:39:08.947Z,25.3
2018-04-07T12:40:15.650Z,25.1
2018-04-07T12:41:22.585Z,25.1
2018-04-07T12:42:30.022Z,25
2018-04-07T12:43:37.237Z,24.8
2018-04-07T12:44:44.462Z,24.6
2018-04-07T12:45:51.685Z,24.3
2018-04-07T12:46:58.917Z,24.1
2018-04-07T12:48:06.153Z,23.9
2018-04-07T12:49:13.438Z,23.7
2018-04-07T12:50:20.674Z,23.6
2018-04-07T12:51:27.913Z,23.8
2018-04-07T12:52:35.138Z,23.6
2018-04-07T12:53:42.392Z,24.1
2018-04-07T12:54:49.618Z,24.3
2018-04-07T12:55:57.066Z,24.2
2018-04-07T12:57:04.276Z,24.3
2018-04-07T12:58:11.501Z,24.3
2018-04-07T12:59:18.451Z,24.4
2018-04-07T13:00:25.702Z,24.5
2018-04-07T13:01:32.939Z,24.7
2018-04-07T13:02:40.389Z,24.5
2018-04-07T13:03:47.628Z,24.3
2018-04-07T13:04:54.845Z,24.5
2018-04-07T13:06:02.057Z,24.7
2018-04-07T13:07:09.336Z,24.5
2018-04-07T13:08:16.551Z,24.4
2018-04-07T13:09:23.988Z,24.5
2018-04-07T13:10:31.211Z,24.9
2018-04-07T13:11:38.381Z,25.2
2018-04-07T13:12:45.410Z,25.3
2018-04-07T13:13:52.672Z,25
2018-04-07T13:14:59.617Z,24.8
2018-04-07T13:16:06.580Z,24.8
2018-04-07T13:17:13.820Z,24.7
2018-04-07T13:18:20.785Z,24.9
2018-04-07T13:19:28.009Z,25
2018-04-07T13:20:35.461Z,24.9
2018-04-07T13:21:42.678Z,24.9
2018-04-07T13:22:49.926Z,25
2018-04-07T13:23:57.146Z,24.9
2018-04-07T13:25:04.112Z,25
2018-04-07T13:26:11.349Z,24.9
2018-04-07T13:27:18.619Z,24.9
2018-04-07T13:28:25.871Z,24.7
2018-04-07T13:29:33.101Z,25
2018-04-07T13:30:40.358Z,24.9
2018-04-07T13:31:47.577Z,25.1
2018-04-07T13:32:54.799Z,25.3
2018-04-07T13:34:02.035Z,25
2018-04-07T13:35:09.254Z,25
2018-04-07T13:36:16.717Z,24.8
2018-04-07T13:37:23.934Z,25
2018-04-07T13:38:31.386Z,25.2
2018-04-07T13:39:38.602Z,25.4
2018-04-07T13:40:45.824Z,25.5
2018-04-07T13:41:53.044Z,25.9
2018-04-07T13:42:59.998Z,25.8
2018-04-07T13:44:07.270Z,25.2
2018-04-07T13:45:29.203Z,25.1
2018-04-07T13:46:36.432Z,25.2
2018-04-07T13:47:43.656Z,25.6
2018-04-07T13:48:50.612Z,25.7
2018-04-07T13:49:57.579Z,25.8
2018-04-07T13:51:04.796Z,25.8
2018-04-07T13:52:12.020Z,25.7
2018-04-07T13:53:19.002Z,25.4
2018-04-07T13:54:26.177Z,25.1
2018-04-07T13:55:33.402Z,25.1
2018-04-07T13:56:40.861Z,25.3
2018-04-07T13:57:48.095Z,25.5
2018-04-07T13:58:55.119Z,25.7
2018-04-07T14:00:02.128Z,25.7
2018-04-07T14:01:09.086Z,25.4
2018-04-07T14:02:16.308Z,25.5
2018-04-07T14:03:23.764Z,25.6
2018-04-07T14:04:30.710Z,25.5
2018-04-07T14:05:38.196Z,25.7
2018-04-07T14:06:45.149Z,25.8
2018-04-07T14:07:52.406Z,26
2018-04-07T14:08:59.366Z,26
2018-04-07T14:10:06.605Z,25.9
2018-04-07T14:11:13.286Z,25.9
2018-04-07T14:12:20.531Z,26.1
2018-04-07T14:13:27.762Z,26.1
2018-04-07T14:14:35.212Z,26
2018-04-07T14:15:42.483Z,26.3
2018-04-07T14:16:49.512Z,26.2
2018-04-07T14:17:56.817Z,26.3
2018-04-07T14:19:04.286Z,26.4
2018-04-07T14:20:11.266Z,26.2
2018-04-07T14:21:18.275Z,26.1
2018-04-07T14:22:25.530Z,25.9
2018-04-07T14:23:32.987Z,25.7
2018-04-07T14:24:40.223Z,25.4
2018-04-07T14:25:47.448Z,25.7
2018-04-07T14:26:54.668Z,26.1
2018-04-07T14:28:01.900Z,26.2
2018-04-07T14:29:09.115Z,26
2018-04-07T14:30:16.356Z,25.7
2018-04-07T14:31:23.573Z,25.4
2018-04-07T14:32:31.005Z,25.1
2018-04-07T14:33:38.218Z,25.2
2018-04-07T14:34:45.464Z,25.2
2018-04-07T14:35:52.668Z,25.4
2018-04-07T14:36:59.908Z,25.6
2018-04-07T14:38:06.863Z,25.4
2018-04-07T14:39:13.820Z,25.6
2018-04-07T14:40:20.764Z,25.5
2018-04-07T14:41:27.991Z,25.2
2018-04-07T14:42:35.216Z,25.2
2018-04-07T14:43:42.401Z,25.2
2018-04-07T14:44:49.349Z,25.1
2018-04-07T14:45:56.526Z,25.3
2018-04-07T14:47:03.479Z,25.2
2018-04-07T14:48:10.704Z,25.5
2018-04-07T14:49:17.378Z,25.4
2018-04-07T14:50:24.618Z,25.3
2018-04-07T14:51:31.874Z,25.3
2018-04-07T14:52:39.079Z,25
2018-04-07T14:53:46.289Z,25.1
2018-04-07T14:54:53.746Z,25.2
2018-04-07T14:56:00.689Z,25
2018-04-07T14:57:08.189Z,25
2018-04-07T14:58:15.419Z,25.2
2018-04-07T14:59:22.100Z,25.4
2018-04-07T15:00:28.807Z,25.4
2018-04-07T15:01:36.047Z,25.4
2018-04-07T15:02:43.281Z,25.2
2018-04-07T15:03:50.510Z,25.2
2018-04-07T15:04:57.459Z,25.3
2018-04-07T15:06:04.422Z,25.5
2018-04-07T15:07:11.380Z,25.5
2018-04-07T15:08:18.371Z,25.3
2018-04-07T15:09:25.067Z,25.5
2018-04-07T15:10:32.252Z,25.7
2018-04-07T15:11:39.489Z,25.9
2018-04-07T15:12:46.982Z,25.8
2018-04-07T15:13:53.920Z,25.7
2018-04-07T15:15:00.891Z,25.8